Redan, GA (30074)

12:10 PM EDT on august 01, 2015 (GMT -0400)
Havenridge | | Change Station
CLOSE
Current Station
Staţie meteo personală
Location: Conyers, GA
Elevation: 879 ft
Nearby Weather Stations

Elev 879 ft 33.67 °N, 84.08 °W | Updated 9 minutes ago

Cer în general noros
Cer în general noros
85.3 °F
Feels Like 87 °F
N
1.1
Vânt variabil Vânt from SSV

astăzi
High -- | Low -- °F
--% Chance of Precip.
Ieri
High -- | Low -- °F
Precip. -- inch
6:48 AM 8:36 PM
Lună plină, 98% visible
Presiunea 29.96 inch
Vizibilitatea 10.0 mile
Nori Cer acoperit 4700 ft
Indicele de căldură 87 °F
Punctul de rouă 66 °F
Umiditatea 52%
Precipitaţii 0.05 inch
Adâncimea zăpezii Not available.
UV 3 out of 12
Pollen 5.40 out of 12
Calitatea aerului Not available.
Flu Activity Not available.
METAR KPDK 011553Z VRB04KT 10SM OVC047 28/17 A3002 RMK AO2 SLP145 T02830172

More Conditions Fewer Conditions

Presiunea 29.96 inch
Vizibilitatea 10.0 mile
Nori Cer acoperit 4700 ft
Indicele de căldură 87 °F
Punctul de rouă 66 °F
Umiditatea 52%
Precipitaţii 0.05 inch
Adâncimea zăpezii Not available.
UV 3 out of 12
Pollen 5.40 out of 12
Calitatea aerului Not available.
Flu Activity Not available.
METAR KPDK 011553Z VRB04KT 10SM OVC047 28/17 A3002 RMK AO2 SLP145 T02830172

More Conditions Fewer Conditions

10-Day Weather Forecast

×

Almanac

Astronomie

Aug. 01, 2015 Răsărit Apus
Timpul Actual
Crepusculul Civil
Crepusculul nautic
Răsărit Astronomic
Luna
Durata zilei lumină
Lungimea zilei
Tomorrow will be .
, % of the Moon is Illuminated

Extremele de azi

State Highs State Lows

Community

WunderPhotos

Upload Photos

1,842,975 photos uploaded!

WunderBlogs® & News

Nearby

Calitatea aerului

  Calitatea aerului Index de calitate a aerului Poluat
Not available.

Adâncimea zapezii

Station Depth Elevation

Earthquake Activity

Oraş Distance Mag. Time & Date
Minimum magnitude displayed is 2.5.

Coastal Water Temperatures

Locul Temperatura

Stations

Nearby Weather Stations

Locaţia staţiei Temp Vânt rece Punctul de rouă Umiditatea Vânt Precip. Elev Actualizare Type